createdAt,value
2023-03-20T00:00:42.204Z,9.80
2023-03-20T00:03:11.953Z,9.80
2023-03-20T00:05:42.091Z,9.80
2023-03-20T00:08:12.240Z,9.80
2023-03-20T00:10:44.842Z,9.80
2023-03-20T00:13:18.096Z,9.80
2023-03-20T00:15:50.547Z,9.90
2023-03-20T00:18:29.940Z,9.90
2023-03-20T00:21:04.292Z,9.90
2023-03-20T00:23:33.771Z,9.90
2023-03-20T00:26:02.566Z,9.90
2023-03-20T00:28:39.113Z,9.90
2023-03-20T00:31:15.197Z,9.90
2023-03-20T00:33:43.983Z,10.00
2023-03-20T00:36:12.548Z,9.90
2023-03-20T00:38:41.884Z,10.00
2023-03-20T00:41:19.675Z,9.90
2023-03-20T00:43:48.936Z,10.00
2023-03-20T00:46:19.394Z,9.90
2023-03-20T00:48:52.100Z,9.80
2023-03-20T00:51:22.102Z,9.80
2023-03-20T00:54:04.926Z,9.80
2023-03-20T00:56:36.136Z,9.80
2023-03-20T00:59:08.037Z,9.90
2023-03-20T01:01:43.134Z,9.90
2023-03-20T01:04:15.645Z,9.90
2023-03-20T01:06:45.760Z,9.90
2023-03-20T01:09:16.210Z,9.90
2023-03-20T01:14:44.924Z,9.70
2023-03-20T01:17:39.842Z,9.70
2023-03-20T01:20:15.340Z,9.60
2023-03-20T01:22:45.440Z,9.60
2023-03-20T01:25:14.051Z,9.50
2023-03-20T01:27:42.410Z,9.50
2023-03-20T01:30:19.709Z,9.60
2023-03-20T01:32:48.516Z,9.70
2023-03-20T01:35:25.165Z,9.70
2023-03-20T01:37:54.658Z,9.80
2023-03-20T01:40:41.150Z,9.80
2023-03-20T01:43:14.311Z,9.70
2023-03-20T01:45:53.202Z,9.60
2023-03-20T01:48:22.543Z,9.60
2023-03-20T01:50:54.854Z,9.60
2023-03-20T01:53:28.538Z,9.50
2023-03-20T01:56:09.866Z,9.60
2023-03-20T01:58:52.656Z,9.60
2023-03-20T02:01:24.990Z,9.60
2023-03-20T02:04:06.337Z,9.60
2023-03-20T02:06:48.363Z,9.70
2023-03-20T02:09:36.499Z,9.80
2023-03-20T02:12:13.685Z,9.80
2023-03-20T02:14:44.710Z,9.80
2023-03-20T02:17:42.992Z,9.80
2023-03-20T02:20:19.774Z,9.70
2023-03-20T02:23:22.164Z,9.70
2023-03-20T02:26:10.796Z,9.70
2023-03-20T02:29:03.435Z,9.70
2023-03-20T02:31:58.226Z,9.70
2023-03-20T02:34:48.745Z,9.70
2023-03-20T02:40:32.403Z,9.70
2023-03-20T02:46:06.356Z,9.90
2023-03-20T02:48:41.093Z,9.90
2023-03-20T02:51:13.386Z,9.90
2023-03-20T02:53:44.749Z,9.80
2023-03-20T02:56:17.741Z,9.90
2023-03-20T02:58:50.987Z,9.80
2023-03-20T03:01:23.634Z,9.90
2023-03-20T03:03:56.435Z,9.80
2023-03-20T03:06:28.205Z,9.70
2023-03-20T03:09:00.183Z,9.80
2023-03-20T03:11:30.702Z,9.80
2023-03-20T03:13:59.950Z,9.90
2023-03-20T03:16:29.060Z,9.90
2023-03-20T03:19:02.028Z,9.70
2023-03-20T03:21:31.520Z,9.60
2023-03-20T03:24:00.080Z,9.60
2023-03-20T03:26:32.183Z,9.50
2023-03-20T03:29:04.057Z,9.40
2023-03-20T03:31:32.766Z,9.30
2023-03-20T03:34:02.735Z,9.30
2023-03-20T03:36:37.866Z,9.30
2023-03-20T03:39:10.478Z,9.30
2023-03-20T03:41:42.831Z,9.30
2023-03-20T03:44:14.340Z,9.30
2023-03-20T03:46:46.603Z,9.40
2023-03-20T03:49:18.226Z,9.30
2023-03-20T03:51:49.897Z,9.30
2023-03-20T03:54:19.959Z,9.40
2023-03-20T03:57:09.061Z,9.50
2023-03-20T03:59:39.569Z,9.60
2023-03-20T04:02:10.674Z,9.70
2023-03-20T04:04:41.757Z,9.80
2023-03-20T04:07:11.979Z,9.70
2023-03-20T04:09:40.406Z,9.60
2023-03-20T04:12:20.126Z,9.60
2023-03-20T04:14:49.594Z,9.60
2023-03-20T04:17:19.053Z,9.80
2023-03-20T04:19:47.188Z,9.90
2023-03-20T04:22:15.959Z,9.90
2023-03-20T04:24:44.448Z,9.90
2023-03-20T04:27:15.073Z,9.90
2023-03-20T04:29:43.601Z,9.90
2023-03-20T04:32:30.842Z,9.90
2023-03-20T04:35:26.526Z,9.90
2023-03-20T04:37:59.924Z,9.80
2023-03-20T04:40:31.827Z,9.80
2023-03-20T04:43:01.627Z,9.70
2023-03-20T04:45:30.297Z,9.60
2023-03-20T04:47:59.132Z,9.60
2023-03-20T04:50:28.907Z,9.50
2023-03-20T04:52:59.202Z,9.60
2023-03-20T04:55:27.877Z,9.70
2023-03-20T04:57:56.468Z,9.80
2023-03-20T05:00:27.515Z,9.90
2023-03-20T05:02:55.624Z,9.90
2023-03-20T05:05:24.906Z,9.90
2023-03-20T05:07:57.206Z,9.90
2023-03-20T05:10:36.204Z,9.90
2023-03-20T05:13:23.499Z,10.00
2023-03-20T05:16:01.716Z,10.00
2023-03-20T05:18:48.737Z,10.00
2023-03-20T05:21:42.955Z,10.10
2023-03-20T05:24:19.577Z,10.10
2023-03-20T05:26:59.955Z,10.20
2023-03-20T05:29:46.055Z,10.20
2023-03-20T05:32:36.950Z,10.20
2023-03-20T05:35:13.391Z,10.20
2023-03-20T05:37:55.855Z,10.20
2023-03-20T05:40:36.935Z,10.20
2023-03-20T05:43:34.754Z,10.10
2023-03-20T05:46:26.449Z,10.10
2023-03-20T05:49:11.643Z,10.10
2023-03-20T05:51:55.708Z,10.00
2023-03-20T05:54:42.157Z,10.10
2023-03-20T05:57:30.635Z,10.20
2023-03-20T06:00:19.584Z,10.30
2023-03-20T06:02:47.901Z,10.20
2023-03-20T06:05:38.610Z,10.20
2023-03-20T06:08:07.600Z,10.30
2023-03-20T06:10:36.071Z,10.30
2023-03-20T06:13:04.327Z,10.30
2023-03-20T06:15:33.975Z,10.40
2023-03-20T06:18:12.362Z,10.40
2023-03-20T06:20:42.369Z,10.40
2023-03-20T06:23:11.077Z,10.50
2023-03-20T06:25:39.933Z,10.50
2023-03-20T06:28:09.091Z,10.50
2023-03-20T06:30:38.744Z,10.50
2023-03-20T06:33:08.431Z,10.60
2023-03-20T06:35:53.141Z,10.60
2023-03-20T06:38:21.501Z,10.60
2023-03-20T06:40:50.333Z,10.60
2023-03-20T06:43:19.517Z,10.60
2023-03-20T06:45:53.132Z,10.60
2023-03-20T06:48:31.413Z,10.50
2023-03-20T06:51:06.393Z,10.50
2023-03-20T06:53:40.033Z,10.50
2023-03-20T06:56:12.362Z,10.50
2023-03-20T06:58:43.003Z,10.50
2023-03-20T07:01:13.577Z,10.50
2023-03-20T07:03:42.571Z,10.50
2023-03-20T07:06:13.517Z,10.40
2023-03-20T07:08:42.167Z,10.30
2023-03-20T07:11:11.232Z,10.30
2023-03-20T07:13:39.904Z,10.30
2023-03-20T07:16:18.640Z,10.30
2023-03-20T07:18:48.206Z,10.30
2023-03-20T07:21:21.564Z,10.20
2023-03-20T07:23:50.539Z,10.10
2023-03-20T07:26:19.213Z,10.20
2023-03-20T07:28:47.796Z,10.20
2023-03-20T07:31:27.177Z,10.30
2023-03-20T07:34:08.539Z,10.40
2023-03-20T07:36:38.818Z,10.40
2023-03-20T07:39:08.538Z,10.30
2023-03-20T07:41:39.003Z,10.30
2023-03-20T07:44:10.618Z,10.30
2023-03-20T07:47:06.248Z,10.20
2023-03-20T07:49:34.636Z,10.30
2023-03-20T07:52:04.522Z,10.40
2023-03-20T07:54:33.193Z,10.40
2023-03-20T07:57:02.076Z,10.40
2023-03-20T07:59:30.179Z,10.40
2023-03-20T08:01:58.907Z,10.30
2023-03-20T08:04:27.696Z,10.30
2023-03-20T08:06:56.802Z,10.20
2023-03-20T08:09:28.064Z,10.30
2023-03-20T08:11:57.047Z,10.40
2023-03-20T08:14:25.607Z,10.40
2023-03-20T08:17:10.172Z,10.40
2023-03-20T08:19:41.819Z,10.40
2023-03-20T08:22:10.529Z,10.60
2023-03-20T08:24:40.190Z,10.70
2023-03-20T08:27:08.535Z,11.00
2023-03-20T08:29:37.407Z,11.30
2023-03-20T08:32:06.975Z,11.60
2023-03-20T08:34:35.832Z,11.80
2023-03-20T08:37:04.792Z,11.80
2023-03-20T08:39:33.589Z,11.70
2023-03-20T08:42:03.421Z,11.60
2023-03-20T08:44:31.773Z,11.60
2023-03-20T08:47:00.522Z,11.60
2023-03-20T08:49:29.697Z,11.50
2023-03-20T08:51:58.609Z,11.50
2023-03-20T08:54:27.618Z,11.60
2023-03-20T08:56:56.440Z,11.50
2023-03-20T08:59:26.620Z,11.50
2023-03-20T09:01:55.646Z,11.40
2023-03-20T09:04:24.939Z,11.30
2023-03-20T09:06:54.275Z,11.30
2023-03-20T09:09:29.862Z,11.40
2023-03-20T09:11:58.825Z,11.40
2023-03-20T09:14:29.492Z,11.40
2023-03-20T09:16:58.160Z,11.30
2023-03-20T09:19:26.471Z,11.20
2023-03-20T09:21:54.675Z,11.30
2023-03-20T09:24:23.141Z,11.30
2023-03-20T09:26:51.480Z,11.30
2023-03-20T09:29:20.326Z,11.10
2023-03-20T09:31:50.549Z,11.10
2023-03-20T09:34:19.264Z,11.10
2023-03-20T09:36:49.081Z,11.00
2023-03-20T09:39:19.029Z,11.00
2023-03-20T09:41:57.118Z,11.00
2023-03-20T09:44:36.110Z,11.00
2023-03-20T09:47:19.745Z,11.00
2023-03-20T09:49:52.425Z,11.10
2023-03-20T09:52:23.267Z,11.20
2023-03-20T09:55:05.492Z,11.70
2023-03-20T09:57:46.116Z,12.30
2023-03-20T10:00:18.298Z,13.30
2023-03-20T10:02:49.777Z,14.50
2023-03-20T10:05:21.790Z,15.60
2023-03-20T10:07:50.947Z,15.80
2023-03-20T10:10:20.789Z,16.20
2023-03-20T10:12:52.639Z,16.60
2023-03-20T10:15:24.311Z,16.90
2023-03-20T10:17:59.088Z,16.90
2023-03-20T10:20:31.247Z,17.30
2023-03-20T10:23:00.406Z,17.60
2023-03-20T10:25:31.281Z,17.60
2023-03-20T10:28:00.458Z,17.20
2023-03-20T10:30:34.341Z,17.30
2023-03-20T10:33:12.460Z,17.20
2023-03-20T10:35:45.372Z,16.50
2023-03-20T10:38:19.399Z,16.10
2023-03-20T10:40:47.785Z,15.90
2023-03-20T10:43:18.560Z,15.70
2023-03-20T10:45:48.110Z,16.00
2023-03-20T10:54:28.968Z,15.60
2023-03-20T11:00:02.150Z,15.40
2023-03-20T11:02:31.284Z,15.40
2023-03-20T11:05:07.471Z,15.30
2023-03-20T11:08:09.439Z,14.90
2023-03-20T11:10:57.941Z,14.60
2023-03-20T11:13:43.681Z,14.30
2023-03-20T11:16:24.941Z,14.20
2023-03-20T11:18:55.355Z,14.00
2023-03-20T11:21:27.745Z,13.70
2023-03-20T11:27:39.986Z,13.50
2023-03-20T11:30:45.943Z,13.80
2023-03-20T11:36:31.166Z,14.70
2023-03-20T11:39:00.872Z,15.30
2023-03-20T11:41:34.742Z,15.70
2023-03-20T11:44:12.187Z,16.50
2023-03-20T11:46:44.556Z,17.80
2023-03-20T11:52:54.138Z,20.00
2023-03-20T11:55:30.668Z,20.50
2023-03-20T11:58:04.394Z,20.80
2023-03-20T12:01:07.829Z,20.80
2023-03-20T12:09:55.342Z,19.70
2023-03-20T12:21:31.391Z,18.90
2023-03-20T12:24:22.766Z,18.50
2023-03-20T12:30:26.262Z,17.50
2023-03-20T12:33:25.637Z,18.00
2023-03-20T12:36:33.622Z,18.40
2023-03-20T12:39:12.764Z,18.40
2023-03-20T12:41:46.954Z,18.50
2023-03-20T12:44:22.419Z,18.60
2023-03-20T12:46:58.202Z,18.30
2023-03-20T12:49:31.385Z,18.00
2023-03-20T12:52:05.442Z,17.40
2023-03-20T12:54:41.752Z,17.30
2023-03-20T13:00:36.773Z,16.60
2023-03-20T13:06:13.205Z,16.40
2023-03-20T13:09:05.332Z,16.40
2023-03-20T13:11:40.958Z,16.40
2023-03-20T13:17:27.689Z,16.00
2023-03-20T13:20:17.909Z,16.00
2023-03-20T13:22:53.256Z,15.90
2023-03-20T13:25:48.242Z,15.90
2023-03-20T13:28:49.098Z,15.90
2023-03-20T13:31:27.346Z,15.70
2023-03-20T13:34:00.877Z,15.60
2023-03-20T13:36:38.601Z,15.60
2023-03-20T13:39:19.744Z,15.60
2023-03-20T13:41:57.938Z,15.40
2023-03-20T13:44:36.489Z,15.40
2023-03-20T13:47:21.846Z,15.10
2023-03-20T13:50:14.246Z,15.00
2023-03-20T13:52:55.493Z,15.20
2023-03-20T13:55:28.823Z,15.30
2023-03-20T13:58:07.409Z,15.30
2023-03-20T14:00:39.388Z,15.30
2023-03-20T14:03:20.143Z,15.20
2023-03-20T14:05:49.925Z,15.20
2023-03-20T14:08:33.734Z,15.10
2023-03-20T14:11:07.703Z,15.00
2023-03-20T14:13:36.664Z,15.20
2023-03-20T14:16:06.601Z,15.50
2023-03-20T14:18:34.914Z,15.50
2023-03-20T14:21:10.627Z,15.70
2023-03-20T14:23:40.443Z,15.80
2023-03-20T14:26:10.767Z,15.70
2023-03-20T14:28:45.625Z,15.70
2023-03-20T14:31:21.823Z,15.70
2023-03-20T14:33:55.245Z,15.60
2023-03-20T14:36:28.104Z,15.80
2023-03-20T14:39:04.099Z,16.10
2023-03-20T14:41:38.831Z,16.30
2023-03-20T14:44:14.559Z,16.20
2023-03-20T14:46:49.778Z,16.00
2023-03-20T14:49:25.651Z,15.60
2023-03-20T14:52:02.161Z,15.40
2023-03-20T14:54:34.422Z,15.30
2023-03-20T14:57:10.291Z,15.30
2023-03-20T14:59:39.014Z,15.40
2023-03-20T15:02:07.190Z,15.40
2023-03-20T15:04:38.830Z,15.20
2023-03-20T15:07:15.089Z,15.30
2023-03-20T15:09:45.032Z,15.30
2023-03-20T15:12:15.262Z,15.20
2023-03-20T15:14:46.854Z,15.20
2023-03-20T15:17:21.240Z,15.20
2023-03-20T15:19:52.668Z,15.20
2023-03-20T15:22:23.398Z,15.10
2023-03-20T15:24:55.842Z,15.10
2023-03-20T15:27:26.141Z,15.00
2023-03-20T15:29:56.105Z,15.00
2023-03-20T15:32:25.979Z,14.90
2023-03-20T15:34:54.384Z,14.90
2023-03-20T15:37:29.662Z,14.90
2023-03-20T15:40:00.307Z,14.70
2023-03-20T15:42:28.814Z,14.50
2023-03-20T15:44:57.616Z,14.50
2023-03-20T15:47:27.035Z,14.20
2023-03-20T15:49:56.522Z,14.10
2023-03-20T15:52:31.017Z,14.00
2023-03-20T15:55:00.294Z,13.90
2023-03-20T15:57:35.550Z,13.70
2023-03-20T16:00:05.243Z,13.70
2023-03-20T16:02:36.521Z,13.70
2023-03-20T16:05:05.239Z,13.70
2023-03-20T16:07:35.039Z,13.70
2023-03-20T16:10:14.035Z,13.60
2023-03-20T16:12:47.253Z,13.50
2023-03-20T16:15:16.908Z,13.40
2023-03-20T16:17:46.172Z,13.40
2023-03-20T16:20:15.508Z,13.30
2023-03-20T16:22:59.124Z,13.20
2023-03-20T16:25:30.451Z,13.20
2023-03-20T16:27:59.721Z,13.20
2023-03-20T16:30:32.005Z,13.20
2023-03-20T16:33:02.005Z,13.40
2023-03-20T16:35:34.966Z,13.20
2023-03-20T16:38:15.523Z,13.20
2023-03-20T16:40:43.752Z,13.00
2023-03-20T16:43:14.343Z,13.00
2023-03-20T16:45:44.342Z,12.90
2023-03-20T16:48:26.883Z,12.90
2023-03-20T16:51:00.358Z,12.90
2023-03-20T16:53:32.218Z,12.80
2023-03-20T16:56:05.402Z,12.70
2023-03-20T16:58:35.449Z,12.60
2023-03-20T17:01:05.125Z,12.60
2023-03-20T17:03:38.012Z,12.50
2023-03-20T17:06:08.034Z,12.30
2023-03-20T17:08:41.338Z,12.30
2023-03-20T17:11:12.763Z,12.30
2023-03-20T17:13:41.344Z,12.30
2023-03-20T17:16:12.215Z,12.30
2023-03-20T17:18:40.444Z,12.20
2023-03-20T17:21:08.650Z,12.10
2023-03-20T17:23:38.649Z,11.90
2023-03-20T17:26:07.909Z,11.90
2023-03-20T17:28:37.447Z,11.80
2023-03-20T17:31:06.560Z,11.80
2023-03-20T17:33:36.310Z,11.70
2023-03-20T17:36:04.906Z,11.70
2023-03-20T17:38:33.238Z,11.70
2023-03-20T17:41:02.674Z,11.60
2023-03-20T17:43:30.757Z,11.60
2023-03-20T17:46:00.387Z,11.60
2023-03-20T17:48:29.709Z,11.60
2023-03-20T17:50:57.879Z,11.50
2023-03-20T17:53:29.253Z,11.40
2023-03-20T17:55:57.707Z,11.40
2023-03-20T17:58:28.400Z,11.40
2023-03-20T18:00:57.262Z,11.40
2023-03-20T18:03:27.095Z,11.30
2023-03-20T18:05:56.786Z,11.30
2023-03-20T18:08:25.342Z,11.30
2023-03-20T18:10:54.978Z,11.30
2023-03-20T18:13:25.782Z,11.30
2023-03-20T18:15:58.568Z,11.20
2023-03-20T18:18:27.618Z,11.20
2023-03-20T18:21:00.052Z,11.20
2023-03-20T18:23:32.432Z,11.10
2023-03-20T18:26:01.724Z,11.10
2023-03-20T18:28:34.505Z,11.10
2023-03-20T18:31:05.350Z,11.10
2023-03-20T18:33:35.244Z,11.10
2023-03-20T18:36:03.831Z,11.10
2023-03-20T18:38:33.886Z,11.10
2023-03-20T18:41:05.418Z,11.10
2023-03-20T18:43:34.506Z,11.00
2023-03-20T18:46:04.713Z,11.00
2023-03-20T18:48:34.477Z,11.00
2023-03-20T18:51:04.261Z,11.00
2023-03-20T18:53:33.208Z,11.00
2023-03-20T18:56:01.829Z,11.00
2023-03-20T18:58:33.236Z,10.90
2023-03-20T19:01:02.326Z,10.90
2023-03-20T19:03:39.786Z,10.90
2023-03-20T19:06:12.121Z,10.90
2023-03-20T19:08:40.699Z,10.90
2023-03-20T19:11:15.421Z,11.00
2023-03-20T19:13:47.529Z,10.90
2023-03-20T19:16:25.602Z,10.90
2023-03-20T19:18:56.944Z,10.90
2023-03-20T19:21:26.478Z,10.90
2023-03-20T19:23:55.630Z,10.90
2023-03-20T19:26:26.495Z,10.90
2023-03-20T19:28:56.057Z,10.80
2023-03-20T19:31:25.791Z,10.80
2023-03-20T19:33:56.827Z,10.80
2023-03-20T19:36:26.983Z,10.80
2023-03-20T19:38:57.996Z,10.80
2023-03-20T19:41:28.022Z,10.80
2023-03-20T19:43:56.422Z,10.80
2023-03-20T19:46:39.164Z,10.80
2023-03-20T19:49:17.775Z,10.80
2023-03-20T19:51:48.373Z,10.80
2023-03-20T19:54:16.853Z,10.90
2023-03-20T19:56:45.211Z,10.90
2023-03-20T19:59:16.544Z,10.90
2023-03-20T20:01:46.668Z,11.00
2023-03-20T20:04:16.992Z,11.00
2023-03-20T20:06:47.418Z,11.00
2023-03-20T20:09:16.602Z,11.00
2023-03-20T20:11:46.717Z,11.00
2023-03-20T20:14:15.537Z,11.00
2023-03-20T20:16:45.738Z,11.00
2023-03-20T20:19:14.650Z,11.00
2023-03-20T20:22:25.329Z,11.00
2023-03-20T20:24:33.081Z,10.90
2023-03-20T20:27:16.392Z,10.90
2023-03-20T20:29:49.224Z,10.90
2023-03-20T20:32:17.821Z,10.90
2023-03-20T20:35:34.929Z,11.00
2023-03-20T20:38:30.709Z,11.00
2023-03-20T20:40:26.119Z,10.90
2023-03-20T20:42:56.418Z,10.50
2023-03-20T20:45:25.899Z,10.20
2023-03-20T20:47:54.908Z,10.00
2023-03-20T20:50:24.217Z,9.80
2023-03-20T20:52:54.405Z,9.70
2023-03-20T20:55:24.650Z,9.50
2023-03-20T20:57:54.813Z,9.40
2023-03-20T21:00:37.173Z,9.40
2023-03-20T21:03:13.595Z,9.40
2023-03-20T21:05:45.144Z,9.30
2023-03-20T21:08:16.815Z,9.30
2023-03-20T21:10:47.971Z,9.20
2023-03-20T21:13:16.619Z,9.20
2023-03-20T21:15:45.910Z,9.10
2023-03-20T21:18:14.078Z,9.10
2023-03-20T21:20:49.141Z,9.10
2023-03-20T21:23:21.100Z,9.10
2023-03-20T21:25:50.552Z,9.10
2023-03-20T21:28:19.888Z,9.10
2023-03-20T21:31:12.506Z,9.10
2023-03-20T21:33:39.865Z,9.10
2023-03-20T21:36:08.517Z,9.20
2023-03-20T21:41:28.650Z,9.30
2023-03-20T21:43:57.023Z,9.30
2023-03-20T21:46:58.737Z,9.40
2023-03-20T22:03:38.628Z,9.70
2023-03-20T22:12:30.471Z,10.00
2023-03-20T22:15:23.272Z,10.00
2023-03-20T22:21:21.905Z,10.10
2023-03-20T22:38:52.333Z,10.40
2023-03-20T22:41:24.438Z,10.40
2023-03-20T22:44:24.881Z,10.30
2023-03-20T22:49:06.752Z,10.10
2023-03-20T22:51:40.917Z,10.00
2023-03-20T22:54:14.772Z,9.90
2023-03-20T22:56:44.629Z,9.90
2023-03-20T22:59:16.162Z,10.00
2023-03-20T23:01:46.517Z,10.00
2023-03-20T23:04:19.173Z,9.90
2023-03-20T23:06:48.343Z,9.80
2023-03-20T23:09:20.065Z,9.80
2023-03-20T23:11:48.998Z,9.80
2023-03-20T23:14:22.142Z,9.70
2023-03-20T23:19:47.884Z,9.50
2023-03-20T23:22:21.572Z,9.50
2023-03-20T23:24:51.147Z,9.50
2023-03-20T23:27:27.504Z,9.50
2023-03-20T23:29:58.928Z,9.50
2023-03-20T23:32:34.810Z,9.50
2023-03-20T23:35:20.887Z,9.60
2023-03-20T23:37:59.809Z,9.70
2023-03-20T23:40:31.160Z,9.80
2023-03-20T23:43:02.992Z,9.80
2023-03-20T23:45:33.413Z,9.90
2023-03-20T23:48:10.733Z,9.80
2023-03-20T23:50:52.178Z,9.80
2023-03-20T23:53:26.284Z,9.80
2023-03-20T23:55:56.813Z,9.70
2023-03-20T23:58:27.644Z,9.60
